createdAt,value
2022-08-09T00:01:43.180Z,17.30
2022-08-09T00:04:35.122Z,17.20
2022-08-09T00:07:07.874Z,17.20
2022-08-09T00:09:37.957Z,17.20
2022-08-09T00:12:05.672Z,17.20
2022-08-09T00:14:37.793Z,17.10
2022-08-09T00:17:06.376Z,17.10
2022-08-09T00:19:34.066Z,17.10
2022-08-09T00:22:03.710Z,17.00
2022-08-09T00:24:32.183Z,17.00
2022-08-09T00:27:00.569Z,17.00
2022-08-09T00:30:10.119Z,17.00
2022-08-09T00:32:25.210Z,17.00
2022-08-09T00:34:54.313Z,16.90
2022-08-09T00:37:21.302Z,16.90
2022-08-09T00:40:12.838Z,16.90
2022-08-09T00:44:14.159Z,16.80
2022-08-09T00:45:22.904Z,16.80
2022-08-09T00:47:50.329Z,16.70
2022-08-09T00:50:17.569Z,16.70
2022-08-09T00:52:44.910Z,16.70
2022-08-09T00:55:32.869Z,16.70
2022-08-09T00:57:59.569Z,16.70
2022-08-09T01:00:27.970Z,16.60
2022-08-09T01:03:06.239Z,16.60
2022-08-09T01:06:03.756Z,16.60
2022-08-09T01:08:53.122Z,16.60
2022-08-09T01:11:53.356Z,16.50
2022-08-09T01:14:31.257Z,16.50
2022-08-09T01:17:08.882Z,16.50
2022-08-09T01:19:51.737Z,16.60
2022-08-09T01:24:01.212Z,16.50
2022-08-09T01:26:09.260Z,16.50
2022-08-09T01:28:39.950Z,16.50
2022-08-09T01:32:29.525Z,16.40
2022-08-09T01:34:02.310Z,16.40
2022-08-09T01:36:31.678Z,16.40
2022-08-09T01:39:01.325Z,16.40
2022-08-09T01:41:35.786Z,16.40
2022-08-09T01:44:05.365Z,16.40
2022-08-09T01:46:41.988Z,16.40
2022-08-09T01:49:16.672Z,16.40
2022-08-09T01:51:53.708Z,16.30
2022-08-09T01:54:33.483Z,16.30
2022-08-09T01:57:08.612Z,16.30
2022-08-09T01:59:51.066Z,16.30
2022-08-09T02:02:23.910Z,16.20
2022-08-09T02:05:11.788Z,16.20
2022-08-09T02:08:39.998Z,16.20
2022-08-09T02:10:51.358Z,16.20
2022-08-09T02:13:26.284Z,16.10
2022-08-09T02:16:07.833Z,16.10
2022-08-09T02:18:38.402Z,16.10
2022-08-09T02:21:21.787Z,16.00
2022-08-09T02:24:01.895Z,16.10
2022-08-09T02:26:34.458Z,16.10
2022-08-09T02:29:20.868Z,16.10
2022-08-09T02:31:48.835Z,16.00
2022-08-09T02:34:40.272Z,16.00
2022-08-09T02:37:14.789Z,16.00
2022-08-09T02:39:54.936Z,15.90
2022-08-09T02:42:37.355Z,15.90
2022-08-09T02:45:28.708Z,15.90
2022-08-09T02:48:00.951Z,15.90
2022-08-09T02:50:35.108Z,15.90
2022-08-09T02:53:06.851Z,15.80
2022-08-09T02:55:57.298Z,15.70
2022-08-09T02:58:35.593Z,15.70
2022-08-09T03:01:08.026Z,15.70
2022-08-09T03:04:17.774Z,15.60
2022-08-09T03:06:27.394Z,15.60
2022-08-09T03:08:56.412Z,15.60
2022-08-09T03:11:29.858Z,15.60
2022-08-09T03:14:21.796Z,15.50
2022-08-09T03:16:54.676Z,15.50
2022-08-09T03:19:59.710Z,15.40
2022-08-09T03:22:25.738Z,15.40
2022-08-09T03:25:06.332Z,15.40
2022-08-09T03:27:51.444Z,15.40
2022-08-09T03:30:29.252Z,15.50
2022-08-09T03:33:01.911Z,15.40
2022-08-09T03:36:11.362Z,15.40
2022-08-09T03:38:30.370Z,15.30
2022-08-09T03:40:58.258Z,15.30
2022-08-09T03:43:31.749Z,15.20
2022-08-09T03:46:05.397Z,15.20
2022-08-09T03:48:52.341Z,15.20
2022-08-09T03:51:55.222Z,15.20
2022-08-09T03:54:12.098Z,15.20
2022-08-09T03:56:46.692Z,15.20
2022-08-09T03:59:27.084Z,15.10
2022-08-09T04:01:56.877Z,15.10
2022-08-09T04:04:36.085Z,15.20
2022-08-09T04:07:04.529Z,15.10
2022-08-09T04:09:41.853Z,15.10
2022-08-09T04:12:30.588Z,15.10
2022-08-09T04:15:02.029Z,15.10
2022-08-09T04:17:42.479Z,15.10
2022-08-09T04:20:12.302Z,15.10
2022-08-09T04:22:41.236Z,15.10
2022-08-09T04:25:13.017Z,15.10
2022-08-09T04:27:48.890Z,15.10
2022-08-09T04:30:26.031Z,15.20
2022-08-09T04:32:54.203Z,15.20
2022-08-09T04:35:21.795Z,15.30
2022-08-09T04:37:49.698Z,15.40
2022-08-09T04:40:19.677Z,15.60
2022-08-09T04:43:03.702Z,15.70
2022-08-09T04:45:35.791Z,15.80
2022-08-09T04:48:10.706Z,16.00
2022-08-09T04:50:38.117Z,16.20
2022-08-09T04:53:13.607Z,16.40
2022-08-09T04:55:58.883Z,16.70
2022-08-09T04:58:28.939Z,16.80
2022-08-09T05:00:56.106Z,17.00
2022-08-09T05:03:40.344Z,17.20
2022-08-09T05:06:21.788Z,17.40
2022-08-09T05:09:00.566Z,17.60
2022-08-09T05:11:30.609Z,17.80
2022-08-09T05:13:59.795Z,18.00
2022-08-09T05:16:28.529Z,18.30
2022-08-09T05:19:00.168Z,18.50
2022-08-09T05:21:29.921Z,18.70
2022-08-09T05:24:01.366Z,18.90
2022-08-09T05:26:45.561Z,19.10
2022-08-09T05:29:24.522Z,19.20
2022-08-09T05:32:02.092Z,19.40
2022-08-09T05:34:32.366Z,19.50
2022-08-09T05:37:11.313Z,19.60
2022-08-09T05:39:43.735Z,19.70
2022-08-09T05:42:17.259Z,19.80
2022-08-09T05:44:51.305Z,20.00
2022-08-09T05:47:21.341Z,20.20
2022-08-09T05:50:30.150Z,20.30
2022-08-09T05:52:38.585Z,20.40
2022-08-09T05:55:08.524Z,20.50
2022-08-09T05:57:50.736Z,20.60
2022-08-09T06:00:25.167Z,20.90
2022-08-09T06:02:56.884Z,21.10
2022-08-09T06:05:50.347Z,21.20
2022-08-09T06:08:18.937Z,21.40
2022-08-09T06:10:47.627Z,21.50
2022-08-09T06:13:18.667Z,21.60
2022-08-09T06:15:47.224Z,21.90
2022-08-09T06:18:20.471Z,22.30
2022-08-09T06:20:57.272Z,22.50
2022-08-09T06:23:59.022Z,22.60
2022-08-09T06:26:20.234Z,22.70
2022-08-09T06:28:50.306Z,22.90
2022-08-09T06:31:30.499Z,23.10
2022-08-09T06:33:58.964Z,23.10
2022-08-09T06:36:27.243Z,23.00
2022-08-09T06:38:56.966Z,23.00
2022-08-09T06:41:24.919Z,23.20
2022-08-09T06:44:18.082Z,23.20
2022-08-09T06:46:45.587Z,23.40
2022-08-09T06:49:22.625Z,23.50
2022-08-09T06:51:56.323Z,23.50
2022-08-09T06:54:23.103Z,23.60
2022-08-09T06:56:54.004Z,23.70
2022-08-09T07:00:51.081Z,23.80
2022-08-09T07:02:10.242Z,23.90
2022-08-09T07:04:37.488Z,23.90
2022-08-09T07:07:04.921Z,23.90
2022-08-09T07:09:55.041Z,24.20
2022-08-09T07:12:18.843Z,24.20
2022-08-09T07:14:51.249Z,24.40
2022-08-09T07:17:21.885Z,24.70
2022-08-09T07:19:50.857Z,25.00
2022-08-09T07:22:27.395Z,25.30
2022-08-09T07:25:05.162Z,25.50
2022-08-09T07:27:34.513Z,25.70
2022-08-09T07:30:13.400Z,25.90
2022-08-09T07:32:42.145Z,25.90
2022-08-09T07:35:12.278Z,25.90
2022-08-09T07:37:44.555Z,25.90
2022-08-09T07:40:18.876Z,26.10
2022-08-09T07:42:54.388Z,26.20
2022-08-09T07:45:37.543Z,26.30
2022-08-09T07:48:28.805Z,26.60
2022-08-09T07:51:09.308Z,26.50
2022-08-09T07:54:07.375Z,26.60
2022-08-09T07:56:33.974Z,26.90
2022-08-09T07:59:01.228Z,26.80
2022-08-09T08:01:33.859Z,26.70
2022-08-09T08:04:02.502Z,26.60
2022-08-09T08:06:31.966Z,26.50
2022-08-09T08:09:05.040Z,26.80
2022-08-09T08:12:11.437Z,27.00
2022-08-09T08:14:24.144Z,27.40
2022-08-09T08:17:07.539Z,27.20
2022-08-09T08:19:35.665Z,27.00
2022-08-09T08:22:03.567Z,26.70
2022-08-09T08:24:34.273Z,26.60
2022-08-09T08:27:17.207Z,26.70
2022-08-09T08:29:50.208Z,26.80
2022-08-09T08:32:28.713Z,26.80
2022-08-09T08:34:58.739Z,26.90
2022-08-09T08:37:41.004Z,27.00
2022-08-09T08:40:16.904Z,27.00
2022-08-09T08:42:47.213Z,26.90
2022-08-09T08:45:16.737Z,27.00
2022-08-09T08:47:45.350Z,27.20
2022-08-09T08:50:18.232Z,27.30
2022-08-09T08:52:52.645Z,27.30
2022-08-09T08:55:26.105Z,27.50
2022-08-09T08:57:57.641Z,27.60
2022-08-09T09:00:30.439Z,27.90
2022-08-09T09:03:11.605Z,27.80
2022-08-09T09:06:00.523Z,27.80
2022-08-09T09:08:37.860Z,27.90
2022-08-09T09:11:08.852Z,28.20
2022-08-09T09:13:55.778Z,28.30
2022-08-09T09:16:34.227Z,28.30
2022-08-09T09:22:16.753Z,28.40
2022-08-09T09:26:00.488Z,28.30
2022-08-09T09:28:06.959Z,28.40
2022-08-09T09:30:40.770Z,28.40
2022-08-09T09:33:15.525Z,28.50
2022-08-09T09:36:01.329Z,28.70
2022-08-09T09:38:53.090Z,28.90
2022-08-09T09:41:32.543Z,29.20
2022-08-09T09:44:12.101Z,29.20
2022-08-09T09:46:50.401Z,29.20
2022-08-09T09:49:55.968Z,29.10
2022-08-09T09:52:16.327Z,29.50
2022-08-09T09:55:24.110Z,29.80
2022-08-09T09:58:19.222Z,29.90
2022-08-09T10:00:53.024Z,30.10
2022-08-09T10:03:43.888Z,29.90
2022-08-09T10:06:12.847Z,30.20
2022-08-09T10:08:54.245Z,30.60
2022-08-09T10:12:00.280Z,30.80
2022-08-09T10:14:30.276Z,30.70
2022-08-09T10:17:40.004Z,30.70
2022-08-09T10:19:57.077Z,30.70
2022-08-09T10:22:35.836Z,30.60
2022-08-09T10:25:12.115Z,30.70
2022-08-09T10:27:57.114Z,30.80
2022-08-09T10:33:29.839Z,31.40
2022-08-09T10:36:11.617Z,31.50
2022-08-09T10:38:56.158Z,31.50
2022-08-09T10:41:27.850Z,31.40
2022-08-09T10:43:59.444Z,31.60
2022-08-09T10:46:57.150Z,31.60
2022-08-09T10:49:59.585Z,31.70
2022-08-09T10:52:44.518Z,31.70
2022-08-09T10:55:35.760Z,31.70
2022-08-09T10:58:33.846Z,31.70
2022-08-09T11:03:01.744Z,32.10
2022-08-09T11:04:27.766Z,32.00
2022-08-09T11:07:03.745Z,32.30
2022-08-09T11:09:48.224Z,32.40
2022-08-09T11:12:29.440Z,32.20
2022-08-09T11:14:57.386Z,31.60
2022-08-09T11:17:27.377Z,31.60
2022-08-09T11:20:10.363Z,32.00
2022-08-09T11:22:47.070Z,32.30
2022-08-09T11:25:47.665Z,32.50
2022-08-09T11:28:35.157Z,32.40
2022-08-09T11:31:43.285Z,32.70
2022-08-09T11:34:43.001Z,33.10
2022-08-09T11:37:18.023Z,32.90
2022-08-09T11:40:05.043Z,32.90
2022-08-09T11:42:48.687Z,32.50
2022-08-09T11:45:42.731Z,32.50
2022-08-09T11:48:26.021Z,32.80
2022-08-09T11:52:49.545Z,33.00
2022-08-09T11:54:28.596Z,33.00
2022-08-09T11:57:59.645Z,32.90
2022-08-09T12:00:28.138Z,32.50
2022-08-09T12:02:59.209Z,32.60
2022-08-09T12:05:37.871Z,32.70
2022-08-09T12:08:12.137Z,32.80
2022-08-09T12:10:48.582Z,32.80
2022-08-09T12:14:09.479Z,33.10
2022-08-09T12:16:39.935Z,33.10
2022-08-09T12:19:11.328Z,33.10
2022-08-09T12:21:50.522Z,33.40
2022-08-09T12:24:24.941Z,33.40
2022-08-09T12:29:11.081Z,33.40
2022-08-09T12:30:01.744Z,33.50
2022-08-09T12:32:44.747Z,34.00
2022-08-09T12:35:17.088Z,34.30
2022-08-09T12:37:50.080Z,34.40
2022-08-09T12:40:20.456Z,34.20
2022-08-09T12:42:50.174Z,34.10
2022-08-09T12:45:32.356Z,33.50
2022-08-09T12:48:03.045Z,33.50
2022-08-09T12:50:30.339Z,34.00
2022-08-09T12:53:08.311Z,33.80
2022-08-09T12:56:14.780Z,33.90
2022-08-09T12:58:31.163Z,34.00
2022-08-09T13:00:59.222Z,33.90
2022-08-09T13:03:53.202Z,34.30
2022-08-09T13:06:38.901Z,34.50
2022-08-09T13:09:19.081Z,34.10
2022-08-09T13:11:51.438Z,34.40
2022-08-09T13:14:41.101Z,34.10
2022-08-09T13:17:16.243Z,34.10
2022-08-09T13:20:09.599Z,34.30
2022-08-09T13:23:05.185Z,33.80
2022-08-09T13:25:53.216Z,34.10
2022-08-09T13:28:34.588Z,34.00
2022-08-09T13:32:15.355Z,33.90
2022-08-09T13:33:59.124Z,34.00
2022-08-09T13:36:40.489Z,34.00
2022-08-09T13:41:55.680Z,34.10
2022-08-09T13:42:12.215Z,34.10
2022-08-09T13:44:45.753Z,34.00
2022-08-09T13:47:33.537Z,34.10
2022-08-09T13:50:12.490Z,34.10
2022-08-09T13:52:47.674Z,34.30
2022-08-09T13:55:15.589Z,34.60
2022-08-09T13:57:53.057Z,35.30
2022-08-09T14:00:27.415Z,35.60
2022-08-09T14:03:04.609Z,35.80
2022-08-09T14:05:57.102Z,35.70
2022-08-09T14:08:30.023Z,35.40
2022-08-09T14:11:00.251Z,34.90
2022-08-09T14:14:22.412Z,34.10
2022-08-09T14:16:18.967Z,33.30
2022-08-09T14:18:49.609Z,33.20
2022-08-09T14:21:22.619Z,33.40
2022-08-09T14:23:54.477Z,33.50
2022-08-09T14:26:32.487Z,33.80
2022-08-09T14:29:07.477Z,33.70
2022-08-09T14:31:51.930Z,33.50
2022-08-09T14:34:30.773Z,33.20
2022-08-09T14:37:06.807Z,32.90
2022-08-09T14:39:40.384Z,33.00
2022-08-09T14:42:28.783Z,33.20
2022-08-09T14:46:39.755Z,33.40
2022-08-09T14:47:57.246Z,33.50
2022-08-09T14:50:29.086Z,33.70
2022-08-09T14:52:56.369Z,33.60
2022-08-09T14:55:24.711Z,33.30
2022-08-09T14:57:51.799Z,32.60
2022-08-09T15:00:22.062Z,32.40
2022-08-09T15:02:52.011Z,32.40
2022-08-09T15:05:19.992Z,32.50
2022-08-09T15:07:55.988Z,32.80
2022-08-09T15:10:28.157Z,32.90
2022-08-09T15:12:56.082Z,33.40
2022-08-09T15:15:24.419Z,33.20
2022-08-09T15:17:55.751Z,33.50
2022-08-09T15:22:00.667Z,33.90
2022-08-09T15:23:56.254Z,33.80
2022-08-09T15:25:58.298Z,33.80
2022-08-09T15:28:27.593Z,34.20
2022-08-09T15:31:10.361Z,34.40
2022-08-09T15:34:33.532Z,33.70
2022-08-09T15:36:29.333Z,33.50
2022-08-09T15:39:00.916Z,33.50
2022-08-09T15:41:32.283Z,33.10
2022-08-09T15:44:01.928Z,32.70
2022-08-09T15:46:34.326Z,32.60
2022-08-09T15:49:22.898Z,32.80
2022-08-09T15:52:05.168Z,33.20
2022-08-09T15:54:44.570Z,33.60
2022-08-09T15:57:14.113Z,33.40
2022-08-09T15:59:51.680Z,33.40
2022-08-09T16:02:19.234Z,33.10
2022-08-09T16:04:54.259Z,33.00
2022-08-09T16:07:21.138Z,32.90
2022-08-09T16:09:57.662Z,32.90
2022-08-09T16:12:33.059Z,32.60
2022-08-09T16:15:01.475Z,32.50
2022-08-09T16:17:28.883Z,32.60
2022-08-09T16:20:04.733Z,32.50
2022-08-09T16:22:42.346Z,32.80
2022-08-09T16:25:12.135Z,32.80
2022-08-09T16:27:42.685Z,32.70
2022-08-09T16:30:15.122Z,32.50
2022-08-09T16:33:00.739Z,32.40
2022-08-09T16:35:55.786Z,32.20
2022-08-09T16:38:18.001Z,32.40
2022-08-09T16:40:45.718Z,32.20
2022-08-09T16:43:12.701Z,32.10
2022-08-09T16:45:43.655Z,31.80
2022-08-09T16:48:39.217Z,31.60
2022-08-09T16:51:07.451Z,31.70
2022-08-09T16:53:36.123Z,31.80
2022-08-09T16:56:10.191Z,31.80
2022-08-09T16:58:39.818Z,32.00
2022-08-09T17:01:10.045Z,31.80
2022-08-09T17:03:37.664Z,31.70
2022-08-09T17:06:28.185Z,31.60
2022-08-09T17:09:01.697Z,31.30
2022-08-09T17:11:41.951Z,31.30
2022-08-09T17:14:25.995Z,31.20
2022-08-09T17:16:59.645Z,31.10
2022-08-09T17:20:05.209Z,30.60
2022-08-09T17:22:16.118Z,30.20
2022-08-09T17:24:54.898Z,29.90
2022-08-09T17:27:23.787Z,29.60
2022-08-09T17:29:51.348Z,29.80
2022-08-09T17:32:20.361Z,29.70
2022-08-09T17:35:07.833Z,29.80
2022-08-09T17:38:11.467Z,29.80
2022-08-09T17:40:32.670Z,29.70
2022-08-09T17:43:10.767Z,29.60
2022-08-09T17:46:03.767Z,29.60
2022-08-09T17:48:39.802Z,29.60
2022-08-09T17:51:18.451Z,29.50
2022-08-09T17:53:53.361Z,29.30
2022-08-09T17:56:35.561Z,29.40
2022-08-09T17:59:09.301Z,29.20
2022-08-09T18:02:03.682Z,29.10
2022-08-09T18:04:24.489Z,28.80
2022-08-09T18:06:55.056Z,28.50
2022-08-09T18:09:40.737Z,28.30
2022-08-09T18:12:19.618Z,28.20
2022-08-09T18:14:53.581Z,28.00
2022-08-09T18:18:01.692Z,27.90
2022-08-09T18:20:56.931Z,27.70
2022-08-09T18:22:59.723Z,27.60
2022-08-09T18:25:50.425Z,27.60
2022-08-09T18:28:21.634Z,27.40
2022-08-09T18:31:01.440Z,27.20
2022-08-09T18:33:28.606Z,27.00
2022-08-09T18:36:00.421Z,26.90
2022-08-09T18:38:28.145Z,26.70
2022-08-09T18:40:55.660Z,26.40
2022-08-09T18:43:23.524Z,26.30
2022-08-09T18:46:51.308Z,26.10
2022-08-09T18:48:38.773Z,26.00
2022-08-09T18:51:09.626Z,25.80
2022-08-09T18:53:59.858Z,25.50
2022-08-09T18:56:28.278Z,25.30
2022-08-09T18:58:56.817Z,25.00
2022-08-09T19:01:24.870Z,24.70
2022-08-09T19:04:06.259Z,24.40
2022-08-09T19:06:39.007Z,24.10
2022-08-09T19:09:34.073Z,23.80
2022-08-09T19:12:05.405Z,23.70
2022-08-09T19:14:32.564Z,23.50
2022-08-09T19:17:03.633Z,23.30
2022-08-09T19:19:41.340Z,23.20
2022-08-09T19:22:09.041Z,23.00
2022-08-09T19:25:11.418Z,22.90
2022-08-09T19:27:28.506Z,22.80
2022-08-09T19:30:22.891Z,22.70
2022-08-09T19:32:44.269Z,22.60
2022-08-09T19:35:11.327Z,22.60
2022-08-09T19:37:54.446Z,22.50
2022-08-09T19:40:24.071Z,22.40
2022-08-09T19:43:05.323Z,22.30
2022-08-09T19:45:40.214Z,22.30
2022-08-09T19:48:10.771Z,22.30
2022-08-09T19:50:49.534Z,22.20
2022-08-09T19:53:20.507Z,22.10
2022-08-09T19:56:02.449Z,22.00
2022-08-09T19:58:33.079Z,22.00
2022-08-09T20:01:00.119Z,22.00
2022-08-09T20:04:26.589Z,21.90
2022-08-09T20:06:23.559Z,21.90
2022-08-09T20:08:57.668Z,21.80
2022-08-09T20:11:33.863Z,21.80
2022-08-09T20:14:16.501Z,21.70
2022-08-09T20:16:53.698Z,21.80
2022-08-09T20:19:48.599Z,21.80
2022-08-09T20:22:13.902Z,21.70
2022-08-09T20:24:42.187Z,21.70
2022-08-09T20:27:11.686Z,21.60
2022-08-09T20:29:41.062Z,21.60
2022-08-09T20:32:30.153Z,21.60
2022-08-09T20:34:58.935Z,21.50
2022-08-09T20:37:25.931Z,21.50
2022-08-09T20:40:19.245Z,21.40
2022-08-09T20:42:59.737Z,21.40
2022-08-09T20:45:59.591Z,21.40
2022-08-09T20:48:21.060Z,21.30
2022-08-09T20:50:51.099Z,21.30
2022-08-09T20:53:37.318Z,21.20
2022-08-09T20:56:20.259Z,21.20
2022-08-09T20:58:54.706Z,21.20
2022-08-09T21:01:35.507Z,21.00
2022-08-09T21:05:50.886Z,21.00
2022-08-09T21:07:12.319Z,21.00
2022-08-09T21:09:56.290Z,21.00
2022-08-09T21:15:14.684Z,20.90
2022-08-09T21:18:22.933Z,20.80
2022-08-09T21:20:29.825Z,20.80
2022-08-09T21:22:57.666Z,20.80
2022-08-09T21:25:44.004Z,20.80
2022-08-09T21:28:34.105Z,20.70
2022-08-09T21:31:13.649Z,20.60
2022-08-09T21:33:51.732Z,20.60
2022-08-09T21:36:27.829Z,20.50
2022-08-09T21:38:57.259Z,20.50
2022-08-09T21:42:04.477Z,20.40
2022-08-09T21:44:32.847Z,20.40
2022-08-09T21:47:07.863Z,20.30
2022-08-09T21:49:42.582Z,20.30
2022-08-09T21:52:17.807Z,20.30
2022-08-09T21:55:04.307Z,20.20
2022-08-09T21:57:39.242Z,20.10
2022-08-09T22:00:25.432Z,20.00
2022-08-09T22:02:58.767Z,20.00
2022-08-09T22:05:35.559Z,20.00
2022-08-09T22:08:06.448Z,20.00
2022-08-09T22:10:33.406Z,19.90
2022-08-09T22:13:07.470Z,19.90
2022-08-09T22:15:39.078Z,19.90
2022-08-09T22:18:08.263Z,19.80
2022-08-09T22:20:40.185Z,19.80
2022-08-09T22:23:10.610Z,19.70
2022-08-09T22:26:07.454Z,19.60
2022-08-09T22:28:32.545Z,19.60
2022-08-09T22:31:00.487Z,19.60
2022-08-09T22:33:42.463Z,19.60
2022-08-09T22:36:14.507Z,19.50
2022-08-09T22:38:47.199Z,19.50
2022-08-09T22:41:13.983Z,19.40
2022-08-09T22:44:01.988Z,19.40
2022-08-09T22:48:11.072Z,19.30
2022-08-09T22:49:14.885Z,19.30
2022-08-09T22:51:49.284Z,19.20
2022-08-09T22:54:21.313Z,19.10
2022-08-09T22:56:54.704Z,19.10
2022-08-09T22:59:57.482Z,19.10
2022-08-09T23:02:15.985Z,19.00
2022-08-09T23:04:54.252Z,19.00
2022-08-09T23:08:21.984Z,19.00
2022-08-09T23:10:31.628Z,18.90
2022-08-09T23:12:59.638Z,18.90
2022-08-09T23:15:27.470Z,18.80
2022-08-09T23:17:54.346Z,18.80
2022-08-09T23:20:21.326Z,18.80
2022-08-09T23:22:48.665Z,18.70
2022-08-09T23:25:15.460Z,18.70
2022-08-09T23:28:14.307Z,18.60
2022-08-09T23:30:29.998Z,18.60
2022-08-09T23:32:57.038Z,18.60
2022-08-09T23:35:24.068Z,18.50
2022-08-09T23:37:50.852Z,18.40
2022-08-09T23:40:17.877Z,18.40
2022-08-09T23:42:44.761Z,18.40
2022-08-09T23:45:37.124Z,18.40
2022-08-09T23:47:58.646Z,18.30
2022-08-09T23:50:25.435Z,18.20
2022-08-09T23:52:52.541Z,18.20
2022-08-09T23:55:19.558Z,18.10
2022-08-09T23:58:07.970Z,18.10
